sensor_id;sensor_type;location;lat;lon;timestamp;P1;durP1;ratioP1;P2;durP2;ratioP2
56770;SDS011;42641;59.794;17.616;2023-06-26T00:01:00;3.47;;;2.33;;
56770;SDS011;42641;59.794;17.616;2023-06-26T00:03:27;2.50;;;2.30;;
56770;SDS011;42641;59.794;17.616;2023-06-26T00:05:54;2.50;;;2.30;;
56770;SDS011;42641;59.794;17.616;2023-06-26T00:08:26;2.50;;;2.30;;
56770;SDS011;42641;59.794;17.616;2023-06-26T00:10:54;2.70;;;2.50;;
56770;SDS011;42641;59.794;17.616;2023-06-26T00:13:20;2.53;;;2.23;;
56770;SDS011;42641;59.794;17.616;2023-06-26T00:15:47;5.60;;;2.40;;
56770;SDS011;42641;59.794;17.616;2023-06-26T00:18:14;4.00;;;2.40;;
56770;SDS011;42641;59.794;17.616;2023-06-26T00:20:41;6.80;;;2.67;;
56770;SDS011;42641;59.794;17.616;2023-06-26T00:23:07;4.00;;;2.60;;
56770;SDS011;42641;59.794;17.616;2023-06-26T00:25:34;2.77;;;2.57;;
56770;SDS011;42641;59.794;17.616;2023-06-26T00:28:00;3.33;;;2.60;;
56770;SDS011;42641;59.794;17.616;2023-06-26T00:30:27;4.83;;;2.47;;
56770;SDS011;42641;59.794;17.616;2023-06-26T00:32:55;2.57;;;2.33;;
56770;SDS011;42641;59.794;17.616;2023-06-26T00:35:23;3.00;;;2.60;;
56770;SDS011;42641;59.794;17.616;2023-06-26T00:37:50;5.83;;;2.70;;
56770;SDS011;42641;59.794;17.616;2023-06-26T00:40:16;2.93;;;2.50;;
56770;SDS011;42641;59.794;17.616;2023-06-26T00:42:43;3.00;;;2.70;;
56770;SDS011;42641;59.794;17.616;2023-06-26T00:45:10;3.77;;;2.23;;
56770;SDS011;42641;59.794;17.616;2023-06-26T00:47:36;3.07;;;2.40;;
56770;SDS011;42641;59.794;17.616;2023-06-26T00:50:03;2.53;;;2.30;;
56770;SDS011;42641;59.794;17.616;2023-06-26T00:52:31;2.70;;;2.50;;
56770;SDS011;42641;59.794;17.616;2023-06-26T00:54:59;3.13;;;2.50;;
56770;SDS011;42641;59.794;17.616;2023-06-26T00:57:25;3.93;;;2.87;;
56770;SDS011;42641;59.794;17.616;2023-06-26T00:59:53;2.57;;;2.37;;
56770;SDS011;42641;59.794;17.616;2023-06-26T01:02:21;2.80;;;2.10;;
56770;SDS011;42641;59.794;17.616;2023-06-26T01:04:48;2.90;;;2.40;;
56770;SDS011;42641;59.794;17.616;2023-06-26T01:07:18;3.67;;;2.47;;
56770;SDS011;42641;59.794;17.616;2023-06-26T01:09:47;2.93;;;2.60;;
56770;SDS011;42641;59.794;17.616;2023-06-26T01:12:14;3.83;;;2.27;;
56770;SDS011;42641;59.794;17.616;2023-06-26T01:14:41;3.00;;;2.70;;
56770;SDS011;42641;59.794;17.616;2023-06-26T01:17:08;3.07;;;2.77;;
56770;SDS011;42641;59.794;17.616;2023-06-26T01:19:40;3.10;;;2.50;;
56770;SDS011;42641;59.794;17.616;2023-06-26T01:22:17;3.63;;;2.60;;
56770;SDS011;42641;59.794;17.616;2023-06-26T01:24:54;3.57;;;2.53;;
56770;SDS011;42641;59.794;17.616;2023-06-26T01:27:45;3.00;;;2.40;;
56770;SDS011;42641;59.794;17.616;2023-06-26T01:30:14;3.00;;;2.70;;
56770;SDS011;42641;59.794;17.616;2023-06-26T01:32:43;2.80;;;2.57;;
56770;SDS011;42641;59.794;17.616;2023-06-26T01:35:10;5.53;;;2.80;;
56770;SDS011;42641;59.794;17.616;2023-06-26T01:37:38;2.70;;;2.20;;
56770;SDS011;42641;59.794;17.616;2023-06-26T01:40:04;3.70;;;2.70;;
56770;SDS011;42641;59.794;17.616;2023-06-26T01:42:32;4.53;;;2.67;;
56770;SDS011;42641;59.794;17.616;2023-06-26T01:45:01;3.20;;;2.50;;
56770;SDS011;42641;59.794;17.616;2023-06-26T01:47:44;3.13;;;2.70;;
56770;SDS011;42641;59.794;17.616;2023-06-26T01:50:17;2.73;;;2.50;;
56770;SDS011;42641;59.794;17.616;2023-06-26T01:53:10;4.97;;;2.47;;
56770;SDS011;42641;59.794;17.616;2023-06-26T01:55:55;3.70;;;2.67;;
56770;SDS011;42641;59.794;17.616;2023-06-26T01:58:31;2.83;;;2.57;;
56770;SDS011;42641;59.794;17.616;2023-06-26T02:00:59;3.23;;;2.57;;
56770;SDS011;42641;59.794;17.616;2023-06-26T02:03:25;3.13;;;2.50;;
56770;SDS011;42641;59.794;17.616;2023-06-26T02:05:52;3.07;;;2.60;;
56770;SDS011;42641;59.794;17.616;2023-06-26T02:08:19;4.10;;;2.57;;
56770;SDS011;42641;59.794;17.616;2023-06-26T02:10:48;3.00;;;2.50;;
56770;SDS011;42641;59.794;17.616;2023-06-26T02:13:16;3.17;;;2.87;;
56770;SDS011;42641;59.794;17.616;2023-06-26T02:15:42;4.73;;;2.80;;
56770;SDS011;42641;59.794;17.616;2023-06-26T02:18:09;3.10;;;2.40;;
56770;SDS011;42641;59.794;17.616;2023-06-26T02:20:36;2.60;;;2.40;;
56770;SDS011;42641;59.794;17.616;2023-06-26T02:23:02;4.40;;;2.70;;
56770;SDS011;42641;59.794;17.616;2023-06-26T02:25:29;3.63;;;2.83;;
56770;SDS011;42641;59.794;17.616;2023-06-26T02:27:55;3.03;;;2.60;;
56770;SDS011;42641;59.794;17.616;2023-06-26T02:30:22;3.53;;;2.73;;
56770;SDS011;42641;59.794;17.616;2023-06-26T02:32:48;3.50;;;2.80;;
56770;SDS011;42641;59.794;17.616;2023-06-26T02:35:16;4.00;;;3.00;;
56770;SDS011;42641;59.794;17.616;2023-06-26T02:37:43;4.00;;;3.03;;
56770;SDS011;42641;59.794;17.616;2023-06-26T02:40:10;6.40;;;2.80;;
56770;SDS011;42641;59.794;17.616;2023-06-26T02:42:38;3.20;;;2.40;;
56770;SDS011;42641;59.794;17.616;2023-06-26T02:45:05;3.30;;;2.80;;
56770;SDS011;42641;59.794;17.616;2023-06-26T02:47:33;4.70;;;2.70;;
56770;SDS011;42641;59.794;17.616;2023-06-26T02:49:59;3.03;;;2.57;;
56770;SDS011;42641;59.794;17.616;2023-06-26T02:52:27;3.40;;;2.93;;
56770;SDS011;42641;59.794;17.616;2023-06-26T02:54:55;5.50;;;3.33;;
56770;SDS011;42641;59.794;17.616;2023-06-26T02:57:21;4.57;;;2.80;;
56770;SDS011;42641;59.794;17.616;2023-06-26T02:59:48;2.90;;;2.60;;
56770;SDS011;42641;59.794;17.616;2023-06-26T03:02:14;2.93;;;2.63;;
56770;SDS011;42641;59.794;17.616;2023-06-26T03:04:44;2.73;;;2.50;;
56770;SDS011;42641;59.794;17.616;2023-06-26T03:07:13;4.60;;;2.87;;
56770;SDS011;42641;59.794;17.616;2023-06-26T03:09:40;3.87;;;3.10;;
56770;SDS011;42641;59.794;17.616;2023-06-26T03:12:08;2.80;;;2.47;;
56770;SDS011;42641;59.794;17.616;2023-06-26T03:14:35;3.30;;;2.70;;
56770;SDS011;42641;59.794;17.616;2023-06-26T03:17:01;3.63;;;2.83;;
56770;SDS011;42641;59.794;17.616;2023-06-26T03:19:31;3.30;;;3.00;;
56770;SDS011;42641;59.794;17.616;2023-06-26T03:22:14;3.70;;;2.60;;
56770;SDS011;42641;59.794;17.616;2023-06-26T03:24:41;4.00;;;2.90;;
56770;SDS011;42641;59.794;17.616;2023-06-26T03:27:09;2.87;;;2.60;;
56770;SDS011;42641;59.794;17.616;2023-06-26T03:29:36;5.87;;;2.53;;
56770;SDS011;42641;59.794;17.616;2023-06-26T03:32:02;3.73;;;2.90;;
56770;SDS011;42641;59.794;17.616;2023-06-26T03:34:29;2.87;;;2.60;;
56770;SDS011;42641;59.794;17.616;2023-06-26T03:36:55;2.90;;;2.70;;
56770;SDS011;42641;59.794;17.616;2023-06-26T03:39:22;2.97;;;2.47;;
56770;SDS011;42641;59.794;17.616;2023-06-26T03:41:49;2.77;;;2.57;;
56770;SDS011;42641;59.794;17.616;2023-06-26T03:44:16;3.47;;;2.90;;
56770;SDS011;42641;59.794;17.616;2023-06-26T03:46:46;3.03;;;2.77;;
56770;SDS011;42641;59.794;17.616;2023-06-26T03:49:13;3.00;;;2.60;;
56770;SDS011;42641;59.794;17.616;2023-06-26T03:51:39;2.80;;;2.47;;
56770;SDS011;42641;59.794;17.616;2023-06-26T03:54:06;3.13;;;2.63;;
56770;SDS011;42641;59.794;17.616;2023-06-26T03:56:32;3.43;;;2.47;;
56770;SDS011;42641;59.794;17.616;2023-06-26T03:58:59;3.77;;;2.43;;
56770;SDS011;42641;59.794;17.616;2023-06-26T04:01:26;2.63;;;2.43;;
56770;SDS011;42641;59.794;17.616;2023-06-26T04:03:53;2.80;;;2.50;;
56770;SDS011;42641;59.794;17.616;2023-06-26T04:06:20;2.90;;;2.70;;
56770;SDS011;42641;59.794;17.616;2023-06-26T04:08:46;2.63;;;2.43;;
56770;SDS011;42641;59.794;17.616;2023-06-26T04:11:13;2.60;;;2.40;;
56770;SDS011;42641;59.794;17.616;2023-06-26T04:13:40;2.70;;;2.50;;
56770;SDS011;42641;59.794;17.616;2023-06-26T04:16:06;3.63;;;2.73;;
56770;SDS011;42641;59.794;17.616;2023-06-26T04:18:33;5.30;;;2.90;;
56770;SDS011;42641;59.794;17.616;2023-06-26T04:21:03;4.30;;;2.50;;
56770;SDS011;42641;59.794;17.616;2023-06-26T04:23:39;2.73;;;2.20;;
56770;SDS011;42641;59.794;17.616;2023-06-26T04:26:06;2.83;;;2.40;;
56770;SDS011;42641;59.794;17.616;2023-06-26T04:28:34;2.63;;;2.43;;
56770;SDS011;42641;59.794;17.616;2023-06-26T04:31:01;2.70;;;2.50;;
56770;SDS011;42641;59.794;17.616;2023-06-26T04:33:31;2.88;;;2.40;;
56770;SDS011;42641;59.794;17.616;2023-06-26T04:35:57;3.45;;;2.38;;
56770;SDS011;42641;59.794;17.616;2023-06-26T04:38:28;2.90;;;2.33;;
56770;SDS011;42641;59.794;17.616;2023-06-26T04:40:55;3.00;;;2.42;;
56770;SDS011;42641;59.794;17.616;2023-06-26T04:43:22;2.92;;;2.53;;
56770;SDS011;42641;59.794;17.616;2023-06-26T04:45:48;2.55;;;2.35;;
56770;SDS011;42641;59.794;17.616;2023-06-26T04:48:14;4.30;;;2.20;;
56770;SDS011;42641;59.794;17.616;2023-06-26T04:50:41;2.78;;;2.50;;
56770;SDS011;42641;59.794;17.616;2023-06-26T04:53:08;2.83;;;2.45;;
56770;SDS011;42641;59.794;17.616;2023-06-26T04:55:34;2.40;;;2.20;;
56770;SDS011;42641;59.794;17.616;2023-06-26T04:58:01;2.50;;;2.30;;
56770;SDS011;42641;59.794;17.616;2023-06-26T05:00:27;2.85;;;2.30;;
56770;SDS011;42641;59.794;17.616;2023-06-26T05:02:54;2.30;;;2.10;;
56770;SDS011;42641;59.794;17.616;2023-06-26T05:05:27;2.65;;;2.45;;
56770;SDS011;42641;59.794;17.616;2023-06-26T05:07:54;3.78;;;2.20;;
56770;SDS011;42641;59.794;17.616;2023-06-26T05:10:23;2.22;;;2.03;;
56770;SDS011;42641;59.794;17.616;2023-06-26T05:12:49;2.28;;;2.08;;
56770;SDS011;42641;59.794;17.616;2023-06-26T05:15:16;2.55;;;2.15;;
56770;SDS011;42641;59.794;17.616;2023-06-26T05:17:42;2.55;;;2.20;;
56770;SDS011;42641;59.794;17.616;2023-06-26T05:20:09;2.35;;;2.05;;
56770;SDS011;42641;59.794;17.616;2023-06-26T05:22:36;2.28;;;2.08;;
56770;SDS011;42641;59.794;17.616;2023-06-26T05:25:05;1.92;;;1.75;;
56770;SDS011;42641;59.794;17.616;2023-06-26T05:27:34;1.90;;;1.80;;
56770;SDS011;42641;59.794;17.616;2023-06-26T05:30:02;3.22;;;2.20;;
56770;SDS011;42641;59.794;17.616;2023-06-26T05:32:29;3.50;;;2.20;;
56770;SDS011;42641;59.794;17.616;2023-06-26T05:34:59;2.47;;;2.28;;
56770;SDS011;42641;59.794;17.616;2023-06-26T05:37:28;2.40;;;2.17;;
56770;SDS011;42641;59.794;17.616;2023-06-26T05:39:56;2.13;;;1.90;;
56770;SDS011;42641;59.794;17.616;2023-06-26T05:42:23;2.63;;;1.98;;
56770;SDS011;42641;59.794;17.616;2023-06-26T05:44:50;2.28;;;1.90;;
56770;SDS011;42641;59.794;17.616;2023-06-26T05:47:16;2.00;;;1.88;;
56770;SDS011;42641;59.794;17.616;2023-06-26T05:49:43;1.92;;;1.83;;
56770;SDS011;42641;59.794;17.616;2023-06-26T05:52:10;2.00;;;1.70;;
56770;SDS011;42641;59.794;17.616;2023-06-26T05:54:37;2.45;;;1.92;;
56770;SDS011;42641;59.794;17.616;2023-06-26T05:57:03;2.60;;;2.00;;
56770;SDS011;42641;59.794;17.616;2023-06-26T05:59:31;2.13;;;2.00;;
56770;SDS011;42641;59.794;17.616;2023-06-26T06:01:58;2.10;;;1.90;;
56770;SDS011;42641;59.794;17.616;2023-06-26T06:04:24;1.92;;;1.70;;
56770;SDS011;42641;59.794;17.616;2023-06-26T06:06:51;1.63;;;1.52;;
56770;SDS011;42641;59.794;17.616;2023-06-26T06:09:17;1.85;;;1.60;;
56770;SDS011;42641;59.794;17.616;2023-06-26T06:11:44;1.60;;;1.50;;
56770;SDS011;42641;59.794;17.616;2023-06-26T06:14:10;2.00;;;1.77;;
56770;SDS011;42641;59.794;17.616;2023-06-26T06:16:37;1.98;;;1.80;;
56770;SDS011;42641;59.794;17.616;2023-06-26T06:19:04;2.72;;;1.75;;
56770;SDS011;42641;59.794;17.616;2023-06-26T06:21:32;1.75;;;1.50;;
56770;SDS011;42641;59.794;17.616;2023-06-26T06:23:59;1.83;;;1.70;;
56770;SDS011;42641;59.794;17.616;2023-06-26T06:26:26;1.70;;;1.60;;
56770;SDS011;42641;59.794;17.616;2023-06-26T06:28:54;1.92;;;1.63;;
56770;SDS011;42641;59.794;17.616;2023-06-26T06:31:20;2.40;;;1.60;;
56770;SDS011;42641;59.794;17.616;2023-06-26T06:33:47;2.05;;;1.50;;
56770;SDS011;42641;59.794;17.616;2023-06-26T06:36:13;1.67;;;1.58;;
56770;SDS011;42641;59.794;17.616;2023-06-26T06:38:42;1.60;;;1.50;;
56770;SDS011;42641;59.794;17.616;2023-06-26T06:41:09;1.77;;;1.67;;
56770;SDS011;42641;59.794;17.616;2023-06-26T06:43:36;3.08;;;1.50;;
56770;SDS011;42641;59.794;17.616;2023-06-26T06:46:02;1.70;;;1.60;;
56770;SDS011;42641;59.794;17.616;2023-06-26T06:48:29;1.60;;;1.50;;
56770;SDS011;42641;59.794;17.616;2023-06-26T06:50:56;1.70;;;1.60;;
56770;SDS011;42641;59.794;17.616;2023-06-26T06:53:23;1.40;;;1.30;;
56770;SDS011;42641;59.794;17.616;2023-06-26T06:55:49;1.83;;;1.60;;
56770;SDS011;42641;59.794;17.616;2023-06-26T06:58:16;2.13;;;1.52;;
56770;SDS011;42641;59.794;17.616;2023-06-26T07:00:45;1.40;;;1.30;;
56770;SDS011;42641;59.794;17.616;2023-06-26T07:03:11;1.73;;;1.58;;
56770;SDS011;42641;59.794;17.616;2023-06-26T07:05:38;1.63;;;1.52;;
56770;SDS011;42641;59.794;17.616;2023-06-26T07:08:04;1.70;;;1.38;;
56770;SDS011;42641;59.794;17.616;2023-06-26T07:10:31;1.80;;;1.70;;
56770;SDS011;42641;59.794;17.616;2023-06-26T07:12:57;2.03;;;1.50;;
56770;SDS011;42641;59.794;17.616;2023-06-26T07:15:23;1.70;;;1.60;;
56770;SDS011;42641;59.794;17.616;2023-06-26T07:17:50;2.15;;;1.50;;
56770;SDS011;42641;59.794;17.616;2023-06-26T07:20:16;1.50;;;1.40;;
56770;SDS011;42641;59.794;17.616;2023-06-26T07:22:43;2.50;;;1.55;;
56770;SDS011;42641;59.794;17.616;2023-06-26T07:25:13;1.98;;;1.40;;
56770;SDS011;42641;59.794;17.616;2023-06-26T07:27:40;2.15;;;1.42;;
56770;SDS011;42641;59.794;17.616;2023-06-26T07:30:07;1.65;;;1.55;;
56770;SDS011;42641;59.794;17.616;2023-06-26T07:32:37;1.63;;;1.52;;
56770;SDS011;42641;59.794;17.616;2023-06-26T07:35:05;2.03;;;1.83;;
56770;SDS011;42641;59.794;17.616;2023-06-26T07:37:32;1.60;;;1.48;;
56770;SDS011;42641;59.794;17.616;2023-06-26T07:39:59;1.83;;;1.50;;
56770;SDS011;42641;59.794;17.616;2023-06-26T07:42:25;1.27;;;1.20;;
56770;SDS011;42641;59.794;17.616;2023-06-26T07:44:51;1.60;;;1.50;;
56770;SDS011;42641;59.794;17.616;2023-06-26T07:47:18;1.80;;;1.70;;
56770;SDS011;42641;59.794;17.616;2023-06-26T07:49:44;1.73;;;1.50;;
56770;SDS011;42641;59.794;17.616;2023-06-26T07:52:11;8.90;;;1.80;;
56770;SDS011;42641;59.794;17.616;2023-06-26T07:54:37;2.65;;;1.63;;
56770;SDS011;42641;59.794;17.616;2023-06-26T07:57:04;3.60;;;1.50;;
56770;SDS011;42641;59.794;17.616;2023-06-26T07:59:34;1.50;;;1.40;;
56770;SDS011;42641;59.794;17.616;2023-06-26T08:02:01;2.00;;;1.42;;
56770;SDS011;42641;59.794;17.616;2023-06-26T08:04:28;2.00;;;1.40;;
56770;SDS011;42641;59.794;17.616;2023-06-26T08:06:59;2.38;;;1.40;;
56770;SDS011;42641;59.794;17.616;2023-06-26T08:09:27;1.50;;;1.40;;
56770;SDS011;42641;59.794;17.616;2023-06-26T08:11:55;8.23;;;1.38;;
56770;SDS011;42641;59.794;17.616;2023-06-26T08:14:22;1.40;;;1.30;;
56770;SDS011;42641;59.794;17.616;2023-06-26T08:16:49;1.35;;;1.30;;
56770;SDS011;42641;59.794;17.616;2023-06-26T08:19:16;2.72;;;1.17;;
56770;SDS011;42641;59.794;17.616;2023-06-26T08:21:44;1.35;;;1.25;;
56770;SDS011;42641;59.794;17.616;2023-06-26T08:24:11;1.50;;;1.40;;
56770;SDS011;42641;59.794;17.616;2023-06-26T08:26:38;1.30;;;1.23;;
56770;SDS011;42641;59.794;17.616;2023-06-26T08:29:05;1.30;;;1.20;;
56770;SDS011;42641;59.794;17.616;2023-06-26T08:31:35;2.58;;;1.33;;
56770;SDS011;42641;59.794;17.616;2023-06-26T08:34:01;1.27;;;1.20;;
56770;SDS011;42641;59.794;17.616;2023-06-26T08:36:29;1.35;;;1.25;;
56770;SDS011;42641;59.794;17.616;2023-06-26T08:38:55;1.40;;;1.30;;
56770;SDS011;42641;59.794;17.616;2023-06-26T08:41:22;1.23;;;1.20;;
56770;SDS011;42641;59.794;17.616;2023-06-26T08:43:49;1.40;;;1.30;;
56770;SDS011;42641;59.794;17.616;2023-06-26T08:46:18;1.52;;;1.17;;
56770;SDS011;42641;59.794;17.616;2023-06-26T08:48:48;1.35;;;1.25;;
56770;SDS011;42641;59.794;17.616;2023-06-26T08:51:17;1.50;;;1.40;;
56770;SDS011;42641;59.794;17.616;2023-06-26T08:53:50;1.20;;;1.20;;
56770;SDS011;42641;59.794;17.616;2023-06-26T08:56:22;1.63;;;1.50;;
56770;SDS011;42641;59.794;17.616;2023-06-26T08:58:51;2.70;;;1.50;;
56770;SDS011;42641;59.794;17.616;2023-06-26T09:01:17;1.40;;;1.30;;
56770;SDS011;42641;59.794;17.616;2023-06-26T09:03:44;2.88;;;1.50;;
56770;SDS011;42641;59.794;17.616;2023-06-26T09:06:12;1.58;;;1.48;;
56770;SDS011;42641;59.794;17.616;2023-06-26T09:08:38;1.55;;;1.45;;
56770;SDS011;42641;59.794;17.616;2023-06-26T09:13:55;1.40;;;1.30;;
56770;SDS011;42641;59.794;17.616;2023-06-26T09:16:25;1.50;;;1.40;;
56770;SDS011;42641;59.794;17.616;2023-06-26T09:18:55;1.35;;;1.30;;
56770;SDS011;42641;59.794;17.616;2023-06-26T09:21:22;4.50;;;1.80;;
56770;SDS011;42641;59.794;17.616;2023-06-26T09:23:50;1.40;;;1.30;;
56770;SDS011;42641;59.794;17.616;2023-06-26T09:26:18;2.22;;;1.80;;
56770;SDS011;42641;59.794;17.616;2023-06-26T09:28:44;1.60;;;1.50;;
56770;SDS011;42641;59.794;17.616;2023-06-26T09:31:11;1.67;;;1.50;;
56770;SDS011;42641;59.794;17.616;2023-06-26T09:33:38;3.30;;;1.70;;
56770;SDS011;42641;59.794;17.616;2023-06-26T09:36:05;1.60;;;1.50;;
56770;SDS011;42641;59.794;17.616;2023-06-26T09:38:34;1.50;;;1.40;;
56770;SDS011;42641;59.794;17.616;2023-06-26T09:41:04;1.50;;;1.40;;
56770;SDS011;42641;59.794;17.616;2023-06-26T09:43:31;2.45;;;1.35;;
56770;SDS011;42641;59.794;17.616;2023-06-26T09:45:57;2.35;;;1.58;;
56770;SDS011;42641;59.794;17.616;2023-06-26T09:48:24;4.05;;;2.00;;
56770;SDS011;42641;59.794;17.616;2023-06-26T09:50:53;2.28;;;1.20;;
56770;SDS011;42641;59.794;17.616;2023-06-26T09:53:19;3.03;;;1.40;;
56770;SDS011;42641;59.794;17.616;2023-06-26T09:55:46;1.77;;;1.30;;
56770;SDS011;42641;59.794;17.616;2023-06-26T09:58:12;1.63;;;1.40;;
56770;SDS011;42641;59.794;17.616;2023-06-26T10:00:43;2.92;;;1.30;;
56770;SDS011;42641;59.794;17.616;2023-06-26T10:03:10;1.90;;;1.40;;
56770;SDS011;42641;59.794;17.616;2023-06-26T10:05:38;9.55;;;1.85;;
56770;SDS011;42641;59.794;17.616;2023-06-26T10:08:06;2.72;;;1.20;;
56770;SDS011;42641;59.794;17.616;2023-06-26T10:10:34;2.58;;;1.27;;
56770;SDS011;42641;59.794;17.616;2023-06-26T10:13:11;3.15;;;1.48;;
56770;SDS011;42641;59.794;17.616;2023-06-26T10:15:44;3.55;;;1.20;;
56770;SDS011;42641;59.794;17.616;2023-06-26T10:18:12;17.58;;;2.65;;
56770;SDS011;42641;59.794;17.616;2023-06-26T10:20:41;2.42;;;1.20;;
56770;SDS011;42641;59.794;17.616;2023-06-26T10:23:10;2.47;;;1.23;;
56770;SDS011;42641;59.794;17.616;2023-06-26T10:25:37;2.90;;;1.52;;
56770;SDS011;42641;59.794;17.616;2023-06-26T10:28:08;1.20;;;1.10;;
56770;SDS011;42641;59.794;17.616;2023-06-26T10:30:37;3.47;;;1.58;;
56770;SDS011;42641;59.794;17.616;2023-06-26T10:33:05;2.85;;;1.23;;
56770;SDS011;42641;59.794;17.616;2023-06-26T10:35:40;1.38;;;1.27;;
56770;SDS011;42641;59.794;17.616;2023-06-26T10:38:10;1.98;;;1.30;;
56770;SDS011;42641;59.794;17.616;2023-06-26T10:40:55;2.42;;;1.35;;
56770;SDS011;42641;59.794;17.616;2023-06-26T10:43:35;5.78;;;1.40;;
56770;SDS011;42641;59.794;17.616;2023-06-26T10:46:04;1.80;;;1.30;;
56770;SDS011;42641;59.794;17.616;2023-06-26T10:48:44;1.33;;;1.23;;
56770;SDS011;42641;59.794;17.616;2023-06-26T10:51:21;1.80;;;1.40;;
56770;SDS011;42641;59.794;17.616;2023-06-26T10:53:55;4.78;;;1.60;;
56770;SDS011;42641;59.794;17.616;2023-06-26T10:56:40;2.33;;;1.52;;
56770;SDS011;42641;59.794;17.616;2023-06-26T10:59:13;2.25;;;1.27;;
56770;SDS011;42641;59.794;17.616;2023-06-26T11:01:58;1.45;;;1.35;;
56770;SDS011;42641;59.794;17.616;2023-06-26T11:04:36;1.50;;;1.40;;
56770;SDS011;42641;59.794;17.616;2023-06-26T11:10:00;1.60;;;1.50;;
56770;SDS011;42641;59.794;17.616;2023-06-26T11:15:08;4.20;;;1.25;;
56770;SDS011;42641;59.794;17.616;2023-06-26T11:17:42;1.42;;;1.15;;
56770;SDS011;42641;59.794;17.616;2023-06-26T11:20:13;2.15;;;1.20;;
56770;SDS011;42641;59.794;17.616;2023-06-26T11:22:42;20.45;;;2.30;;
56770;SDS011;42641;59.794;17.616;2023-06-26T11:25:09;1.50;;;1.40;;
56770;SDS011;42641;59.794;17.616;2023-06-26T11:30:10;2.17;;;1.30;;
56770;SDS011;42641;59.794;17.616;2023-06-26T11:32:48;1.85;;;1.70;;
56770;SDS011;42641;59.794;17.616;2023-06-26T11:35:22;2.92;;;1.50;;
56770;SDS011;42641;59.794;17.616;2023-06-26T11:37:59;1.98;;;1.77;;
56770;SDS011;42641;59.794;17.616;2023-06-26T11:40:30;2.38;;;1.60;;
56770;SDS011;42641;59.794;17.616;2023-06-26T11:42:59;2.20;;;1.55;;
56770;SDS011;42641;59.794;17.616;2023-06-26T11:45:27;2.63;;;1.73;;
56770;SDS011;42641;59.794;17.616;2023-06-26T11:47:55;2.47;;;1.90;;
56770;SDS011;42641;59.794;17.616;2023-06-26T11:50:23;1.70;;;1.60;;
56770;SDS011;42641;59.794;17.616;2023-06-26T11:52:54;3.17;;;1.60;;
56770;SDS011;42641;59.794;17.616;2023-06-26T11:55:24;2.10;;;2.00;;
56770;SDS011;42641;59.794;17.616;2023-06-26T11:57:56;14.30;;;2.90;;
56770;SDS011;42641;59.794;17.616;2023-06-26T12:00:22;2.40;;;1.95;;
56770;SDS011;42641;59.794;17.616;2023-06-26T12:02:50;5.40;;;1.80;;
56770;SDS011;42641;59.794;17.616;2023-06-26T12:05:18;1.75;;;1.65;;
56770;SDS011;42641;59.794;17.616;2023-06-26T12:07:46;5.38;;;1.90;;
56770;SDS011;42641;59.794;17.616;2023-06-26T12:10:14;2.20;;;1.80;;
56770;SDS011;42641;59.794;17.616;2023-06-26T12:12:41;6.57;;;2.00;;
56770;SDS011;42641;59.794;17.616;2023-06-26T12:15:09;2.17;;;2.00;;
56770;SDS011;42641;59.794;17.616;2023-06-26T12:17:40;2.70;;;2.05;;
56770;SDS011;42641;59.794;17.616;2023-06-26T12:20:17;3.50;;;1.83;;
56770;SDS011;42641;59.794;17.616;2023-06-26T12:22:48;2.10;;;2.00;;
56770;SDS011;42641;59.794;17.616;2023-06-26T12:25:15;5.38;;;2.00;;
56770;SDS011;42641;59.794;17.616;2023-06-26T12:27:47;2.35;;;1.90;;
56770;SDS011;42641;59.794;17.616;2023-06-26T12:30:13;2.47;;;2.10;;
56770;SDS011;42641;59.794;17.616;2023-06-26T12:32:44;3.53;;;2.10;;
56770;SDS011;42641;59.794;17.616;2023-06-26T12:35:11;6.55;;;2.00;;
56770;SDS011;42641;59.794;17.616;2023-06-26T12:37:38;3.58;;;1.58;;
56770;SDS011;42641;59.794;17.616;2023-06-26T12:40:17;1.75;;;1.58;;
56770;SDS011;42641;59.794;17.616;2023-06-26T12:42:45;1.80;;;1.70;;
56770;SDS011;42641;59.794;17.616;2023-06-26T12:45:12;1.88;;;1.77;;
56770;SDS011;42641;59.794;17.616;2023-06-26T12:47:39;1.58;;;1.48;;
56770;SDS011;42641;59.794;17.616;2023-06-26T12:50:07;1.92;;;1.65;;
56770;SDS011;42641;59.794;17.616;2023-06-26T12:52:34;2.60;;;1.30;;
56770;SDS011;42641;59.794;17.616;2023-06-26T12:55:00;3.78;;;1.70;;
56770;SDS011;42641;59.794;17.616;2023-06-26T12:57:27;2.38;;;1.63;;
56770;SDS011;42641;59.794;17.616;2023-06-26T12:59:53;2.33;;;1.52;;
56770;SDS011;42641;59.794;17.616;2023-06-26T13:02:20;1.67;;;1.50;;
56770;SDS011;42641;59.794;17.616;2023-06-26T13:04:46;4.30;;;1.60;;
56770;SDS011;42641;59.794;17.616;2023-06-26T13:07:13;7.57;;;1.50;;
56770;SDS011;42641;59.794;17.616;2023-06-26T13:09:40;1.65;;;1.55;;
56770;SDS011;42641;59.794;17.616;2023-06-26T13:12:07;5.10;;;1.77;;
56770;SDS011;42641;59.794;17.616;2023-06-26T13:14:34;1.95;;;1.63;;
56770;SDS011;42641;59.794;17.616;2023-06-26T13:17:00;5.53;;;1.80;;
56770;SDS011;42641;59.794;17.616;2023-06-26T13:19:27;2.95;;;1.33;;
56770;SDS011;42641;59.794;17.616;2023-06-26T13:21:53;4.93;;;1.92;;
56770;SDS011;42641;59.794;17.616;2023-06-26T13:24:20;1.63;;;1.52;;
56770;SDS011;42641;59.794;17.616;2023-06-26T13:26:46;1.58;;;1.30;;
56770;SDS011;42641;59.794;17.616;2023-06-26T13:29:13;2.75;;;1.50;;
56770;SDS011;42641;59.794;17.616;2023-06-26T13:31:39;1.70;;;1.45;;
56770;SDS011;42641;59.794;17.616;2023-06-26T13:34:06;2.33;;;1.38;;
56770;SDS011;42641;59.794;17.616;2023-06-26T13:36:32;2.92;;;1.42;;
56770;SDS011;42641;59.794;17.616;2023-06-26T13:39:03;2.17;;;1.58;;
56770;SDS011;42641;59.794;17.616;2023-06-26T13:41:29;2.00;;;1.23;;
56770;SDS011;42641;59.794;17.616;2023-06-26T13:43:56;5.88;;;1.75;;
56770;SDS011;42641;59.794;17.616;2023-06-26T13:46:22;2.47;;;1.48;;
56770;SDS011;42641;59.794;17.616;2023-06-26T13:48:49;4.60;;;1.40;;
56770;SDS011;42641;59.794;17.616;2023-06-26T13:51:15;1.60;;;1.30;;
56770;SDS011;42641;59.794;17.616;2023-06-26T13:53:42;5.57;;;1.80;;
56770;SDS011;42641;59.794;17.616;2023-06-26T13:56:08;1.35;;;1.25;;
56770;SDS011;42641;59.794;17.616;2023-06-26T13:58:35;3.20;;;1.50;;
56770;SDS011;42641;59.794;17.616;2023-06-26T14:01:02;1.40;;;1.30;;
56770;SDS011;42641;59.794;17.616;2023-06-26T14:03:29;1.52;;;1.42;;
56770;SDS011;42641;59.794;17.616;2023-06-26T14:05:56;1.83;;;1.38;;
56770;SDS011;42641;59.794;17.616;2023-06-26T14:08:23;2.60;;;1.38;;
56770;SDS011;42641;59.794;17.616;2023-06-26T14:10:49;2.28;;;1.40;;
56770;SDS011;42641;59.794;17.616;2023-06-26T14:13:16;1.52;;;1.38;;
56770;SDS011;42641;59.794;17.616;2023-06-26T14:15:42;1.98;;;1.77;;
56770;SDS011;42641;59.794;17.616;2023-06-26T14:18:09;1.95;;;1.25;;
56770;SDS011;42641;59.794;17.616;2023-06-26T14:20:36;4.05;;;1.42;;
56770;SDS011;42641;59.794;17.616;2023-06-26T14:23:02;2.22;;;1.40;;
56770;SDS011;42641;59.794;17.616;2023-06-26T14:25:29;2.92;;;1.30;;
56770;SDS011;42641;59.794;17.616;2023-06-26T14:27:57;2.33;;;1.40;;
56770;SDS011;42641;59.794;17.616;2023-06-26T14:30:24;1.42;;;1.33;;
56770;SDS011;42641;59.794;17.616;2023-06-26T14:32:51;1.40;;;1.30;;
56770;SDS011;42641;59.794;17.616;2023-06-26T14:35:17;5.60;;;1.60;;
56770;SDS011;42641;59.794;17.616;2023-06-26T14:37:44;1.35;;;1.25;;
56770;SDS011;42641;59.794;17.616;2023-06-26T14:40:10;2.95;;;1.30;;
56770;SDS011;42641;59.794;17.616;2023-06-26T14:42:37;5.88;;;1.83;;
56770;SDS011;42641;59.794;17.616;2023-06-26T14:45:04;4.10;;;1.33;;
56770;SDS011;42641;59.794;17.616;2023-06-26T14:47:31;1.65;;;1.55;;
56770;SDS011;42641;59.794;17.616;2023-06-26T14:49:57;1.50;;;1.40;;